Time;durP1;ratioP1;P1;durP2;ratioP2;P2;SDS_P1;SDS_P2;PMS_P1;PMS_P2;Temp;Humidity;BMP_temperature;BMP_pressure;BME280_temperature;BME280_humidity;BME280_pressure;Samples;Min_cycle;Max_cycle;Signal;HPM_P1;HPM_P2
2023/09/27 00:00:34;;;;;;;10.23;4.82;;;;;;;18.19;63.74;101921.94;5057501;27;20049;-75
2023/09/27 00:03:03;;;;;;;9.50;4.43;;;;;;;18.21;63.50;101926.06;5020092;27;1092927;-75
2023/09/27 00:05:31;;;;;;;9.07;4.68;;;;;;;18.15;63.61;101918.03;5055748;28;20105;-75
2023/09/27 00:07:59;;;;;;;11.18;5.07;;;;;;;18.17;63.41;101930.34;5058657;27;20084;-74
2023/09/27 00:10:28;;;;;;;10.80;5.28;;;;;;;18.09;63.59;101929.91;5060041;28;20045;-74
2023/09/27 00:12:56;;;;;;;10.18;4.95;;;;;;;18.16;63.72;101950.44;5057159;28;20049;-73
2023/09/27 00:15:25;;;;;;;8.52;4.35;;;;;;;18.15;63.55;101950.69;5061588;27;20045;-75
2023/09/27 00:17:54;;;;;;;8.60;5.07;;;;;;;18.14;63.74;101943.59;5060506;27;20045;-74
2023/09/27 00:20:22;;;;;;;10.65;4.57;;;;;;;18.08;63.47;101939.16;5060170;28;20132;-75
2023/09/27 00:22:50;;;;;;;8.23;4.53;;;;;;;18.11;63.69;101941.38;5061464;28;20072;-74
2023/09/27 00:25:19;;;;;;;7.80;4.60;;;;;;;18.06;63.40;101939.38;5062544;27;20044;-75
2023/09/27 00:27:47;;;;;;;7.70;4.57;;;;;;;18.05;63.55;101943.19;5060874;28;20094;-74
2023/09/27 00:30:15;;;;;;;9.27;4.57;;;;;;;18.05;63.69;101935.03;5057059;27;20046;-73
2023/09/27 00:32:45;;;;;;;9.23;4.65;;;;;;;18.04;63.61;101936.09;5060415;28;20072;-74
2023/09/27 00:35:19;;;;;;;9.02;4.80;;;;;;;18.01;63.75;101931.13;5056822;27;20138;-75
2023/09/27 00:37:47;;;;;;;10.60;5.47;;;;;;;18.00;63.60;101940.38;5061085;28;20446;-75
2023/09/27 00:40:18;;;;;;;7.18;4.38;;;;;;;18.01;63.51;101938.47;5060650;28;20048;-74
2023/09/27 00:42:47;;;;;;;10.15;4.50;;;;;;;17.98;63.55;101937.06;5085410;27;20047;-74
2023/09/27 00:45:16;;;;;;;7.80;4.60;;;;;;;17.95;63.39;101926.69;5072725;27;20082;-74
2023/09/27 00:47:47;;;;;;;8.15;4.50;;;;;;;17.96;63.43;101932.94;5060544;28;20045;-75
2023/09/27 00:50:15;;;;;;;6.30;4.00;;;;;;;17.96;63.47;101935.66;5059663;27;20066;-74
2023/09/27 00:52:45;;;;;;;6.88;4.97;;;;;;;17.93;63.40;101936.97;5059527;27;20162;-74
2023/09/27 00:55:15;;;;;;;6.65;4.30;;;;;;;17.92;63.45;101932.59;5061380;27;20101;-74
2023/09/27 00:57:43;;;;;;;6.10;4.18;;;;;;;17.90;63.60;101921.16;5059261;28;20113;-74
2023/09/27 01:00:14;;;;;;;8.60;4.43;;;;;;;17.89;63.40;101924.94;5056430;27;20045;-73
2023/09/27 01:02:42;;;;;;;7.32;4.13;;;;;;;17.87;63.42;101925.19;5059667;28;20124;-73
2023/09/27 01:05:12;;;;;;;9.43;4.80;;;;;;;17.86;63.33;101926.25;5058238;28;20083;-74
2023/09/27 01:07:40;;;;;;;6.43;3.80;;;;;;;17.86;63.56;101925.41;5064363;27;20085;-74
2023/09/27 01:10:09;;;;;;;6.97;4.25;;;;;;;17.86;63.45;101925.41;5060396;27;20045;-73
2023/09/27 01:12:38;;;;;;;7.43;4.07;;;;;;;17.84;63.32;101924.84;5063670;27;20430;-73
2023/09/27 01:15:07;;;;;;;7.47;4.13;;;;;;;17.83;63.44;101929.44;5056219;28;20045;-72
2023/09/27 01:17:35;;;;;;;8.23;4.28;;;;;;;17.83;63.51;101932.16;5060956;27;20086;-73
2023/09/27 01:20:09;;;;;;;6.85;4.30;;;;;;;17.82;63.24;101929.69;5063038;27;20048;-74
2023/09/27 01:22:38;;;;;;;8.38;4.82;;;;;;;17.81;63.36;101928.03;5064824;27;20108;-73
2023/09/27 01:25:12;;;;;;;7.28;3.83;;;;;;;17.80;63.30;101918.25;5060804;27;20070;-73
2023/09/27 01:27:41;;;;;;;7.47;4.50;;;;;;;17.79;63.37;101909.25;5065904;27;20117;-74
2023/09/27 01:30:09;;;;;;;8.02;3.95;;;;;;;17.76;63.20;101900.75;5057855;28;20045;-73
2023/09/27 01:32:37;;;;;;;8.00;4.07;;;;;;;17.77;63.25;101892.34;5060204;27;20041;-73
2023/09/27 01:35:06;;;;;;;5.82;3.95;;;;;;;17.76;63.14;101887.16;5066472;27;20049;-72
2023/09/27 01:37:34;;;;;;;6.85;3.70;;;;;;;17.73;63.26;101880.31;5091319;27;20048;-73
2023/09/27 01:40:06;;;;;;;9.15;3.80;;;;;;;17.69;63.29;101867.47;5059384;28;20078;-73
2023/09/27 01:42:37;;;;;;;6.93;4.13;;;;;;;17.67;63.31;101872.31;5058463;27;20049;-73
2023/09/27 01:45:06;;;;;;;7.63;4.15;;;;;;;17.71;63.26;101882.47;5080331;27;20423;-73
2023/09/27 01:47:34;;;;;;;7.40;3.92;;;;;;;17.70;63.37;101880.81;5058455;27;20097;-73
2023/09/27 01:50:02;;;;;;;7.20;3.92;;;;;;;17.70;63.20;101877.25;5058591;28;20053;-73
2023/09/27 01:52:30;;;;;;;7.15;3.97;;;;;;;17.68;63.19;101882.94;5066766;27;20079;-73
2023/09/27 01:54:58;;;;;;;6.45;3.88;;;;;;;17.69;63.06;101889.22;5058463;27;20060;-72
2023/09/27 01:57:25;;;;;;;9.30;3.50;;;;;;;17.67;63.03;101891.34;5058166;28;20060;-73
2023/09/27 01:59:55;;;;;;;7.38;3.70;;;;;;;17.66;63.22;101895.13;5060891;27;20045;-72
2023/09/27 02:02:22;;;;;;;6.78;3.75;;;;;;;17.64;63.19;101897.25;5059670;28;20102;-72
2023/09/27 02:04:50;;;;;;;7.75;4.20;;;;;;;17.63;63.17;101896.41;5057834;27;20048;-72
2023/09/27 02:07:18;;;;;;;6.78;3.47;;;;;;;17.61;63.18;101901.25;5059966;27;20056;-73
2023/09/27 02:09:46;;;;;;;6.03;3.60;;;;;;;17.60;63.24;101901.50;5060951;27;20041;-73
2023/09/27 02:12:14;;;;;;;5.40;3.70;;;;;;;17.48;63.27;101883.34;5058624;28;20073;-73
2023/09/27 02:14:42;;;;;;;5.45;3.78;;;;;;;17.56;63.16;101893.84;5059618;28;20104;-73
2023/09/27 02:17:11;;;;;;;8.88;4.18;;;;;;;17.54;63.22;101885.09;5059682;27;20048;-73
2023/09/27 02:19:39;;;;;;;6.68;3.15;;;;;;;17.53;63.12;101883.44;5058137;27;20074;-73
2023/09/27 02:22:08;;;;;;;5.13;3.03;;;;;;;17.51;63.07;101888.31;5059302;28;20093;-73
2023/09/27 02:24:36;;;;;;;5.57;3.55;;;;;;;17.51;62.86;101888.31;5065662;27;20049;-73
2023/09/27 02:27:04;;;;;;;7.60;3.80;;;;;;;17.48;62.97;101886.06;5061309;27;20055;-73
2023/09/27 02:29:32;;;;;;;7.53;3.55;;;;;;;17.48;62.90;101888.78;5058991;28;20098;-73
2023/09/27 02:32:00;;;;;;;6.82;3.95;;;;;;;17.47;62.94;101892.56;5060881;27;20085;-74
2023/09/27 02:34:30;;;;;;;7.30;3.58;;;;;;;17.46;63.03;101890.09;5059432;28;20047;-73
2023/09/27 02:36:58;;;;;;;6.35;3.38;;;;;;;17.44;63.07;101890.34;5062043;27;20514;-73
2023/09/27 02:39:26;;;;;;;5.78;3.30;;;;;;;17.43;63.00;101894.13;5058781;27;21529;-73
2023/09/27 02:41:54;;;;;;;6.53;3.60;;;;;;;17.42;63.02;101902.53;5060051;28;20041;-74
2023/09/27 02:44:22;;;;;;;8.50;4.32;;;;;;;17.40;63.10;101902.75;5060702;27;20056;-73
2023/09/27 02:46:51;;;;;;;6.45;3.58;;;;;;;17.38;63.10;101896.75;5059400;27;20053;-72
2023/09/27 02:49:20;;;;;;;7.22;3.83;;;;;;;17.37;63.03;101886.94;5060499;27;20410;-73
2023/09/27 02:51:51;;;;;;;4.97;3.30;;;;;;;17.32;62.96;101880.59;5051559;28;20041;-73
2023/09/27 02:54:20;;;;;;;5.47;2.90;;;;;;;17.28;63.00;101877.53;5050129;28;20140;-73
2023/09/27 02:56:48;;;;;;;6.72;3.88;;;;;;;17.34;63.11;101890.13;5052456;28;20044;-73
2023/09/27 02:59:16;;;;;;;5.68;3.60;;;;;;;17.29;62.88;101884.63;5095710;27;20043;-74
2023/09/27 03:01:43;;;;;;;5.80;3.67;;;;;;;17.30;62.94;101885.47;5058048;28;20211;-73
2023/09/27 03:04:12;;;;;;;6.63;3.47;;;;;;;17.31;62.88;101889.81;5058878;27;20065;-74
2023/09/27 03:06:41;;;;;;;5.35;3.38;;;;;;;17.31;62.90;101881.69;5054418;28;20053;-73
2023/09/27 03:09:11;;;;;;;8.00;4.25;;;;;;;17.24;62.90;101873.66;5062098;27;20060;-73
2023/09/27 03:11:41;;;;;;;8.43;4.47;;;;;;;17.28;62.89;101888.41;5058912;28;20093;-74
2023/09/27 03:14:09;;;;;;;4.95;3.35;;;;;;;17.27;62.80;101886.78;5059677;28;20045;-70
2023/09/27 03:16:39;;;;;;;5.65;3.33;;;;;;;17.26;62.94;101887.00;5057416;27;20055;-70
2023/09/27 03:19:07;;;;;;;6.03;3.53;;;;;;;17.27;62.89;101894.09;5074207;27;20125;-70
2023/09/27 03:21:35;;;;;;;5.88;3.33;;;;;;;17.25;62.98;101899.75;5057542;28;20086;-70
2023/09/27 03:24:03;;;;;;;4.93;3.13;;;;;;;17.24;63.03;101898.13;5058362;27;20082;-70
2023/09/27 03:26:33;;;;;;;6.15;3.63;;;;;;;17.23;62.76;101902.72;5058289;28;20148;-71
2023/09/27 03:29:01;;;;;;;8.90;4.05;;;;;;;17.23;62.93;101899.19;5057835;27;20073;-70
2023/09/27 03:31:28;;;;;;;5.57;3.42;;;;;;;17.20;62.82;101895.06;5058884;27;20145;-70
2023/09/27 03:33:56;;;;;;;6.00;3.30;;;;;;;17.20;62.86;101900.50;5058826;28;20045;-70
2023/09/27 03:36:24;;;;;;;4.97;3.05;;;;;;;17.17;62.90;101906.41;5056801;27;20045;-70
2023/09/27 03:38:52;;;;;;;5.45;3.10;;;;;;;17.16;62.97;101895.78;5059348;28;20045;-70
2023/09/27 03:41:20;;;;;;;5.45;3.60;;;;;;;17.18;62.74;101907.22;5055475;27;20049;-70
2023/09/27 03:43:50;;;;;;;6.47;3.70;;;;;;;17.17;62.78;101911.00;5059342;28;20049;-70
2023/09/27 03:46:19;;;;;;;5.68;3.15;;;;;;;17.17;62.79;101919.16;5058060;28;20064;-70
2023/09/27 03:48:46;;;;;;;4.75;2.83;;;;;;;17.14;62.80;101916.91;5060218;28;20049;-70
2023/09/27 03:51:14;;;;;;;5.47;3.72;;;;;;;17.13;62.88;101915.28;5062120;27;20045;-70
2023/09/27 03:53:42;;;;;;;7.30;3.22;;;;;;;17.13;62.92;101904.41;5075711;27;20053;-70
2023/09/27 03:56:10;;;;;;;5.78;3.67;;;;;;;17.12;62.85;101902.75;5079530;27;20051;-70
2023/09/27 03:58:38;;;;;;;8.60;3.75;;;;;;;17.09;62.71;101890.47;5095866;27;20151;-70
2023/09/27 04:01:07;;;;;;;5.68;3.03;;;;;;;17.08;62.89;101879.84;5062224;27;20749;-70
2023/09/27 04:03:35;;;;;;;4.78;2.85;;;;;;;17.06;62.84;101876.53;5064330;27;20189;-70
2023/09/27 04:06:03;;;;;;;5.32;3.20;;;;;;;17.05;62.91;101889.31;5061183;28;20068;-70
2023/09/27 04:08:32;;;;;;;5.28;3.22;;;;;;;17.04;62.90;101903.94;5062327;28;20066;-70
2023/09/27 04:11:03;;;;;;;5.60;3.13;;;;;;;17.01;62.90;101915.28;5062260;27;20052;-71
2023/09/27 04:13:32;;;;;;;7.38;3.42;;;;;;;17.02;63.05;101926.97;5066092;27;20049;-70
2023/09/27 04:16:00;;;;;;;7.22;2.97;;;;;;;16.88;62.92;101920.97;5062582;28;20064;-70
2023/09/27 04:18:30;;;;;;;6.85;3.22;;;;;;;17.00;62.95;101937.25;5063996;27;20059;-70
2023/09/27 04:21:05;;;;;;;6.57;3.33;;;;;;;16.97;63.09;101924.97;5067654;27;20044;-70
2023/09/27 04:23:34;;;;;;;5.23;3.07;;;;;;;16.97;62.99;101921.44;5061641;27;20098;-70
2023/09/27 04:26:04;;;;;;;5.28;3.53;;;;;;;16.94;62.98;101914.59;5058103;28;20322;-70
2023/09/27 04:28:32;;;;;;;3.75;2.75;;;;;;;16.93;62.87;101921.09;5064144;28;20049;-70
2023/09/27 04:31:00;;;;;;;5.57;3.30;;;;;;;16.76;62.95;101893.00;5094498;27;20046;-70
2023/09/27 04:33:30;;;;;;;5.55;3.22;;;;;;;16.91;62.95;101932.19;5066151;27;20056;-70
2023/09/27 04:35:58;;;;;;;4.88;3.30;;;;;;;16.90;62.89;101927.00;5062731;27;20086;-70
2023/09/27 04:38:27;;;;;;;5.60;3.08;;;;;;;16.89;63.08;101934.31;5062200;28;20482;-70
2023/09/27 04:40:55;;;;;;;6.20;3.67;;;;;;;16.84;62.91;101925.22;5062506;27;20045;-70
2023/09/27 04:43:23;;;;;;;6.50;3.85;;;;;;;16.87;62.87;101931.00;5064499;27;20055;-71
2023/09/27 04:45:51;;;;;;;5.05;3.10;;;;;;;16.85;62.79;101935.84;5061749;28;20102;-72
2023/09/27 04:48:19;;;;;;;4.13;2.65;;;;;;;16.85;62.76;101938.56;5058317;27;20065;-72
2023/09/27 04:50:49;;;;;;;5.15;3.20;;;;;;;16.83;62.78;101929.00;5055308;28;20044;-72
2023/09/27 04:53:16;;;;;;;7.13;3.15;;;;;;;16.81;62.98;101912.94;5060919;27;20045;-71
2023/09/27 04:55:44;;;;;;;5.55;2.78;;;;;;;16.81;62.75;101915.66;5059776;28;20072;-71
2023/09/27 04:58:12;;;;;;;5.75;3.70;;;;;;;16.81;62.84;101929.25;5058913;27;20079;-71
2023/09/27 05:00:40;;;;;;;5.75;3.22;;;;;;;16.80;62.80;101938.44;5059623;28;20057;-72
2023/09/27 05:03:08;;;;;;;6.22;3.10;;;;;;;16.81;62.78;101939.28;5054479;27;20049;-72
2023/09/27 05:05:36;;;;;;;4.82;3.15;;;;;;;16.78;62.91;101926.16;5060095;27;20080;-72
2023/09/27 05:08:06;;;;;;;4.85;2.53;;;;;;;16.78;62.76;101918.84;5061298;27;20045;-71
2023/09/27 05:10:34;;;;;;;5.90;3.45;;;;;;;16.77;62.83;101928.06;5061765;28;20120;-70
2023/09/27 05:13:01;;;;;;;6.75;3.17;;;;;;;16.78;62.87;101950.59;5061463;27;20045;-69
2023/09/27 05:15:29;;;;;;;4.18;2.85;;;;;;;16.76;62.80;101934.56;5062251;27;20106;-71
2023/09/27 05:17:57;;;;;;;5.93;3.47;;;;;;;16.75;62.82;101927.47;5057812;27;20053;-72
2023/09/27 05:20:26;;;;;;;5.32;3.28;;;;;;;16.75;62.78;101924.75;5059096;28;20395;-73
2023/09/27 05:22:54;;;;;;;7.53;3.63;;;;;;;16.74;62.85;101916.84;5060918;28;20140;-70
2023/09/27 05:25:23;;;;;;;4.03;2.88;;;;;;;16.72;62.98;101911.66;4706569;27;10000579;-68
2023/09/27 05:27:51;;;;;;;6.53;3.25;;;;;;;16.71;62.87;101915.44;5052055;27;20052;-69
2023/09/27 05:30:21;;;;;;;5.88;3.40;;;;;;;16.70;62.89;101910.25;5056393;28;20046;-71
2023/09/27 05:32:48;;;;;;;4.63;3.00;;;;;;;16.69;63.00;101905.88;5054151;28;20190;-72
2023/09/27 05:35:17;;;;;;;7.97;3.33;;;;;;;16.69;62.95;101906.69;5055608;28;20057;-69
2023/09/27 05:37:45;;;;;;;4.55;3.05;;;;;;;16.66;62.87;101904.44;5057228;27;20049;-66
2023/09/27 05:40:13;;;;;;;6.70;2.80;;;;;;;16.68;62.92;101912.38;5054804;27;20049;-72
2023/09/27 05:42:43;;;;;;;6.05;3.35;;;;;;;16.68;62.81;101915.91;5071133;27;20059;-73
2023/09/27 05:45:11;;;;;;;5.35;3.22;;;;;;;16.65;62.98;101905.53;5054236;27;20049;-74
2023/09/27 05:47:40;;;;;;;3.85;2.85;;;;;;;16.66;62.89;101898.19;5064780;27;20121;-73
2023/09/27 05:50:11;;;;;;;5.35;3.38;;;;;;;16.65;62.75;101900.09;5067637;27;20061;-74
2023/09/27 05:52:39;;;;;;;6.50;3.25;;;;;;;16.64;63.05;101894.88;5055127;27;20065;-70
2023/09/27 05:55:08;;;;;;;5.43;3.03;;;;;;;16.62;62.95;101900.53;5050084;28;20060;-75
2023/09/27 05:57:36;;;;;;;4.60;3.10;;;;;;;16.61;62.98;101893.44;5053301;28;20148;-73
2023/09/27 06:00:15;;;;;;;8.23;3.60;;;;;;;16.60;62.90;101886.38;5052452;28;20084;-72
2023/09/27 06:02:43;;;;;;;4.80;3.08;;;;;;;16.55;62.83;101883.53;5051767;27;20091;-75
2023/09/27 06:05:12;;;;;;;6.32;3.35;;;;;;;16.59;62.87;101892.84;5101198;27;20579;-74
2023/09/27 06:07:40;;;;;;;5.88;3.38;;;;;;;16.56;62.98;101888.72;5057804;27;20052;-74
2023/09/27 06:10:09;;;;;;;4.32;3.30;;;;;;;16.56;62.99;101899.59;5054287;28;20105;-61
2023/09/27 06:12:37;;;;;;;8.70;4.05;;;;;;;16.43;63.50;101893.56;5043936;27;20049;-75
2023/09/27 06:15:10;;;;;;;7.72;3.90;;;;;;;16.20;63.99;101865.34;5055320;28;20053;-71
2023/09/27 06:17:38;;;;;;;11.20;3.92;;;;;;;16.41;63.76;101899.22;5059967;27;20049;-72
2023/09/27 06:20:11;;;;;;;7.90;3.70;;;;;;;16.43;63.72;101904.41;5057041;28;20488;-71
2023/09/27 06:22:40;;;;;;;6.63;4.00;;;;;;;16.39;63.53;101895.09;5068546;27;20041;-68
2023/09/27 06:25:08;;;;;;;7.28;3.88;;;;;;;16.43;63.59;101897.09;5059770;28;20121;-73
2023/09/27 06:27:36;;;;;;;7.20;3.90;;;;;;;16.44;63.87;101903.34;5058091;27;20070;-72
2023/09/27 06:30:05;;;;;;;10.00;3.90;;;;;;;16.41;63.44;101903.81;5049360;28;20045;-73
2023/09/27 06:32:35;;;;;;;7.93;4.03;;;;;;;16.44;63.52;101901.47;5058403;28;20132;-73
2023/09/27 06:35:12;;;;;;;6.43;4.03;;;;;;;16.44;63.55;101898.75;5058286;27;20053;-73
2023/09/27 06:37:43;;;;;;;7.03;3.90;;;;;;;16.47;63.53;101887.44;5058535;28;20045;-73
2023/09/27 06:40:15;;;;;;;8.07;3.35;;;;;;;16.48;63.52;101878.22;5059886;28;20076;-73
2023/09/27 06:42:44;;;;;;;5.50;3.53;;;;;;;16.50;63.59;101881.53;5058583;28;20056;-74
2023/09/27 06:45:13;;;;;;;9.60;4.13;;;;;;;16.51;63.38;101876.94;5058661;27;20379;-73
2023/09/27 06:47:44;;;;;;;9.68;3.70;;;;;;;16.51;63.27;101875.03;5049030;27;20041;-73
2023/09/27 06:50:13;;;;;;;6.07;3.53;;;;;;;16.52;63.52;101882.13;5055417;28;20414;-73
2023/09/27 06:52:41;;;;;;;8.10;3.33;;;;;;;16.54;63.51;101896.28;5056942;27;20048;-72
2023/09/27 06:55:11;;;;;;;8.18;3.55;;;;;;;16.54;63.51;101909.03;5055996;28;20081;-73
2023/09/27 06:57:41;;;;;;;7.97;4.78;;;;;;;16.55;63.49;101906.06;5054261;28;20116;-72
2023/09/27 07:00:12;;;;;;;11.25;4.85;;;;;;;16.56;63.69;101909.63;5050011;27;20168;-73
2023/09/27 07:02:42;;;;;;;6.95;4.30;;;;;;;16.55;63.55;101897.94;5050807;27;20870;-73
2023/09/27 07:05:11;;;;;;;8.77;4.88;;;;;;;16.57;63.45;101892.28;5059347;27;20045;-72
2023/09/27 07:07:40;;;;;;;7.88;5.07;;;;;;;16.56;63.60;101899.59;5053296;27;20063;-72
2023/09/27 07:10:09;;;;;;;9.80;5.30;;;;;;;16.56;63.75;101899.59;5058891;28;20114;-72
2023/09/27 07:12:37;;;;;;;9.07;5.90;;;;;;;16.50;63.96;101886.97;5058804;27;20053;-73
2023/09/27 07:15:08;;;;;;;12.45;6.20;;;;;;;16.49;63.79;101888.03;5060736;27;20060;-73
2023/09/27 07:17:37;;;;;;;9.73;5.88;;;;;;;16.55;63.88;101902.53;5060875;27;20462;-73
2023/09/27 07:20:20;;;;;;;9.48;5.75;;;;;;;16.55;63.94;101902.53;5059354;28;20353;-72
2023/09/27 07:22:48;;;;;;;10.00;5.70;;;;;;;16.55;63.92;101903.38;5062474;27;20514;-72
2023/09/27 07:25:19;;;;;;;10.35;5.80;;;;;;;16.55;64.03;101914.22;5063268;28;20074;-72
2023/09/27 07:27:48;;;;;;;11.20;6.38;;;;;;;16.56;63.97;101906.91;5065926;27;20045;-72
2023/09/27 07:30:23;;;;;;;9.35;6.22;;;;;;;16.56;63.91;101912.31;5062751;28;20053;-72
2023/09/27 07:32:51;;;;;;;10.30;7.05;;;;;;;16.56;64.11;101913.16;5062278;28;20121;-72
2023/09/27 07:35:21;;;;;;;11.43;7.22;;;;;;;16.45;64.05;101894.16;5059452;27;20065;-72
2023/09/27 07:37:49;;;;;;;13.57;8.10;;;;;;;16.53;64.18;101902.78;5056232;28;20052;-72
2023/09/27 07:40:17;;;;;;;11.48;7.03;;;;;;;16.55;64.10;101903.38;5062062;27;20056;-72
2023/09/27 07:42:47;;;;;;;12.43;7.45;;;;;;;16.56;64.17;101906.91;5061100;28;20056;-72
2023/09/27 07:45:21;;;;;;;11.07;6.97;;;;;;;16.56;64.13;101904.19;5062292;28;20067;-71
2023/09/27 07:47:51;;;;;;;13.65;7.65;;;;;;;16.54;64.18;101895.47;5063488;27;20077;-72
2023/09/27 07:50:21;;;;;;;14.02;7.57;;;;;;;16.57;64.16;101903.13;5061338;28;20076;-71
2023/09/27 07:52:49;;;;;;;10.90;6.70;;;;;;;16.56;64.05;101896.88;5068034;27;20070;-73
2023/09/27 07:55:19;;;;;;;10.68;6.55;;;;;;;16.57;64.06;101892.28;5058317;28;20037;-72
2023/09/27 07:57:47;;;;;;;12.40;6.20;;;;;;;16.57;64.18;101892.28;5061949;27;20511;-72
2023/09/27 08:00:18;;;;;;;10.30;6.30;;;;;;;16.58;64.15;101893.91;5065064;27;20053;-68
2023/09/27 08:02:47;;;;;;;10.20;6.10;;;;;;;16.58;64.40;101908.31;5060676;27;20053;-70
2023/09/27 08:05:16;;;;;;;10.77;6.03;;;;;;;16.58;64.33;101913.75;5075054;27;20059;-71
2023/09/27 08:07:46;;;;;;;11.07;5.95;;;;;;;16.57;64.31;101903.94;5062326;28;20063;-71
2023/09/27 08:10:15;;;;;;;9.95;6.22;;;;;;;16.59;64.47;101898.28;5060470;27;20045;-71
2023/09/27 08:12:48;;;;;;;8.88;5.80;;;;;;;16.60;64.33;101911.63;5068348;27;20072;-71
2023/09/27 08:15:17;;;;;;;9.40;5.13;;;;;;;16.60;64.22;101914.34;5058473;27;20045;-70
2023/09/27 08:17:47;;;;;;;9.13;5.32;;;;;;;16.61;64.27;101923.31;5064481;27;20074;-70
2023/09/27 08:20:15;;;;;;;9.75;5.43;;;;;;;16.61;64.19;101926.03;5059991;28;20047;-71
2023/09/27 08:22:43;;;;;;;8.10;4.93;;;;;;;16.62;64.34;101924.13;5061279;28;20110;-71
2023/09/27 08:25:15;;;;;;;9.07;5.20;;;;;;;16.64;64.23;101932.88;5067387;27;20123;-70
2023/09/27 08:27:43;;;;;;;8.50;5.00;;;;;;;16.63;64.37;101932.03;5059550;28;20083;-71
2023/09/27 08:30:12;;;;;;;8.93;5.38;;;;;;;16.64;64.61;101922.00;5060316;27;20097;-71
2023/09/27 08:32:40;;;;;;;10.85;5.55;;;;;;;16.66;64.62;101922.63;5060325;28;20089;-71
2023/09/27 08:35:10;;;;;;;7.60;4.85;;;;;;;16.62;64.57;101919.53;5056726;28;20044;-71
2023/09/27 08:37:38;;;;;;;6.38;4.38;;;;;;;16.67;64.65;101933.25;5061864;27;20072;-70
2023/09/27 08:40:12;;;;;;;10.20;5.43;;;;;;;16.67;64.79;101935.97;5061142;28;20045;-70
2023/09/27 08:42:43;;;;;;;7.35;4.43;;;;;;;16.69;64.64;101933.03;5060182;28;20057;-70
2023/09/27 08:45:13;;;;;;;6.65;4.60;;;;;;;16.68;64.77;101934.91;5062275;27;20141;-71
2023/09/27 08:47:43;;;;;;;8.93;5.35;;;;;;;16.69;64.90;101944.69;5052465;28;20423;-70
2023/09/27 08:50:13;;;;;;;8.63;5.32;;;;;;;16.69;65.05;101946.59;5058624;27;20117;-71
2023/09/27 08:52:47;;;;;;;8.25;5.10;;;;;;;16.69;64.80;101936.56;5062765;27;20045;-71
2023/09/27 08:55:16;;;;;;;10.63;5.38;;;;;;;16.71;64.73;101931.72;5096438;27;20039;-71
2023/09/27 08:57:47;;;;;;;7.57;4.50;;;;;;;16.73;64.83;101923.34;5055894;27;20053;-71
2023/09/27 09:00:16;;;;;;;7.63;4.93;;;;;;;16.74;65.17;101922.28;5059656;28;20045;-71
2023/09/27 09:02:47;;;;;;;8.82;5.13;;;;;;;16.76;64.82;101915.56;5058098;27;20045;-71
2023/09/27 09:05:16;;;;;;;12.13;5.55;;;;;;;16.79;65.03;101919.69;5067040;27;20051;-71
2023/09/27 09:07:43;;;;;;;7.53;4.95;;;;;;;16.80;65.17;101915.91;5061382;28;20084;-71
2023/09/27 09:10:14;;;;;;;7.88;4.68;;;;;;;16.83;65.00;101932.53;5049901;27;20052;-71
2023/09/27 09:12:43;;;;;;;12.00;5.25;;;;;;;16.84;65.18;101925.22;5078016;27;20051;-70
2023/09/27 09:15:26;;;;;;;7.55;4.97;;;;;;;16.85;64.88;101919.56;5061654;27;20118;-71
2023/09/27 09:17:57;;;;;;;9.30;4.75;;;;;;;16.87;64.76;101914.72;5058142;27;20046;-70
2023/09/27 09:20:32;;;;;;;8.25;4.88;;;;;;;16.87;65.15;101914.72;5059405;28;20547;-71
2023/09/27 09:23:03;;;;;;;8.43;4.30;;;;;;;16.89;65.38;101914.47;5058166;28;20136;-71
2023/09/27 09:25:31;;;;;;;7.22;4.53;;;;;;;16.90;65.12;101907.97;5060260;27;20317;-71
2023/09/27 09:28:04;;;;;;;9.02;4.80;;;;;;;16.85;65.38;101899.72;5051361;28;20045;-70
2023/09/27 09:30:37;;;;;;;7.07;4.88;;;;;;;16.92;65.41;101903.97;5061467;27;20051;-71
2023/09/27 09:33:10;;;;;;;6.95;4.63;;;;;;;16.89;65.61;101892.75;5051237;28;20075;-71
2023/09/27 09:35:39;;;;;;;7.63;4.18;;;;;;;16.95;65.59;101891.81;5057390;28;20094;-71
2023/09/27 09:38:07;;;;;;;7.68;5.13;;;;;;;16.97;65.75;101886.13;5059126;27;20053;-71
2023/09/27 09:40:52;;;;;;;9.32;4.50;;;;;;;16.98;65.81;101885.06;5053009;27;20049;-71
2023/09/27 09:43:30;;;;;;;8.00;4.43;;;;;;;17.00;65.87;101886.47;5060492;28;20045;-68
2023/09/27 09:46:00;;;;;;;9.07;4.45;;;;;;;17.02;66.01;101880.81;5060524;27;21707;-66
2023/09/27 09:48:29;;;;;;;7.28;4.32;;;;;;;17.03;65.98;101872.41;5059985;28;20414;-67
2023/09/27 09:51:03;;;;;;;8.00;4.47;;;;;;;17.05;66.03;101869.47;5058571;27;20067;-66
2023/09/27 09:53:30;;;;;;;7.45;4.60;;;;;;;17.07;66.03;101868.16;5059600;27;20052;-67
2023/09/27 09:56:01;;;;;;;8.13;4.78;;;;;;;17.09;66.36;101865.19;5059835;27;20525;-65
2023/09/27 09:58:36;;;;;;;6.82;4.20;;;;;;;17.11;66.38;101863.06;5055842;28;20078;-67
2023/09/27 10:01:06;;;;;;;9.75;4.75;;;;;;;17.13;66.49;101853.63;5060838;27;20049;-67
2023/09/27 10:03:35;;;;;;;7.35;4.75;;;;;;;17.13;66.60;101852.78;5064821;27;20063;-67
2023/09/27 10:06:04;;;;;;;6.22;3.63;;;;;;;17.09;66.68;101844.31;5059785;28;20044;-67
2023/09/27 10:08:34;;;;;;;8.30;4.40;;;;;;;17.13;67.15;101850.91;5046639;28;20045;-67
2023/09/27 10:11:04;;;;;;;7.88;4.38;;;;;;;17.04;66.86;101825.19;5056819;27;20080;-67
2023/09/27 10:13:34;;;;;;;7.40;4.88;;;;;;;17.05;67.17;101818.69;5075308;27;20074;-67
2023/09/27 10:16:04;;;;;;;9.30;4.85;;;;;;;17.23;67.01;101847.56;5044047;28;20042;-67
2023/09/27 10:18:37;;;;;;;8.75;4.20;;;;;;;17.27;67.12;101851.44;5061025;27;20055;-68
2023/09/27 10:21:08;;;;;;;8.55;4.72;;;;;;;17.29;67.29;101846.59;5058749;27;20073;-67
2023/09/27 10:23:58;;;;;;;7.07;3.92;;;;;;;17.32;67.13;101846.09;5059668;28;20056;-68
2023/09/27 10:26:36;;;;;;;9.27;3.95;;;;;;;17.34;67.18;101843.94;5060907;27;20102;-67
2023/09/27 10:29:15;;;;;;;7.05;3.90;;;;;;;17.22;67.21;101826.91;5068130;27;20053;-67
2023/09/27 10:32:23;;;;;;;9.15;5.28;;;;;;;17.40;67.11;101853.03;5058844;28;20168;-67
2023/09/27 10:34:52;;;;;;;8.48;4.88;;;;;;;17.43;66.88;101853.34;5052893;28;20060;-67
2023/09/27 10:37:57;;;;;;;6.32;4.03;;;;;;;17.47;66.90;101837.38;5047956;28;20057;-67
2023/09/27 10:40:25;;;;;;;8.13;4.43;;;;;;;17.50;66.86;101828.75;5021645;28;20049;-67
2023/09/27 10:42:55;;;;;;;6.50;3.60;;;;;;;17.52;67.07;101821.19;5016283;28;20045;-67
2023/09/27 10:45:23;;;;;;;7.20;3.60;;;;;;;17.55;67.30;101818.78;5019863;28;20094;-66
2023/09/27 10:47:53;;;;;;;7.45;4.30;;;;;;;17.59;67.57;101816.41;5016709;28;20170;-66
2023/09/27 10:50:30;;;;;;;5.85;4.07;;;;;;;17.58;67.81;101802.00;5009320;28;20050;-66
2023/09/27 10:53:00;;;;;;;7.45;4.30;;;;;;;17.61;67.69;101802.56;5048070;28;20678;-67
2023/09/27 10:55:38;;;;;;;10.93;5.07;;;;;;;17.71;67.80;101805.50;5012124;28;20052;-66
2023/09/27 10:58:06;;;;;;;6.82;3.97;;;;;;;17.63;67.99;101778.69;5013947;28;20072;-68
2023/09/27 11:00:34;;;;;;;10.80;4.30;;;;;;;17.76;68.21;101790.09;5015468;28;20046;-67
2023/09/27 11:03:15;;;;;;;10.05;3.63;;;;;;;17.81;68.04;101794.78;5014425;28;20072;-67
2023/09/27 11:05:45;;;;;;;7.50;3.70;;;;;;;17.84;68.09;101786.16;5015466;28;20050;-67
2023/09/27 11:08:20;;;;;;;6.10;3.78;;;;;;;17.88;68.11;101790.03;5015434;28;20062;-67
2023/09/27 11:10:48;;;;;;;7.20;4.00;;;;;;;17.89;68.74;101784.34;5016180;28;20831;-68
2023/09/27 11:13:17;;;;;;;6.85;4.35;;;;;;;17.96;68.69;101786.06;5017349;28;20042;-67
2023/09/27 11:15:46;;;;;;;5.70;3.58;;;;;;;17.99;68.69;101775.50;5025304;28;20053;-67
2023/09/27 11:18:14;;;;;;;7.18;3.28;;;;;;;18.03;68.43;101779.38;5025440;28;20050;-67
2023/09/27 11:20:42;;;;;;;7.93;3.92;;;;;;;18.07;68.88;101768.81;5029158;28;20050;-67
2023/09/27 11:23:11;;;;;;;8.10;3.55;;;;;;;18.11;68.74;101770.78;5032115;28;20057;-67
2023/09/27 11:25:41;;;;;;;5.97;3.60;;;;;;;18.15;68.94;101762.97;5026730;28;20121;-67
2023/09/27 11:28:16;;;;;;;4.65;3.08;;;;;;;18.18;68.67;101752.41;5038444;28;20073;-67
2023/09/27 11:30:44;;;;;;;6.63;3.20;;;;;;;18.19;68.86;101739.63;5049559;28;20072;-67
2023/09/27 11:33:16;;;;;;;7.80;3.38;;;;;;;18.27;68.82;101741.09;5051737;28;20593;-66
2023/09/27 11:35:48;;;;;;;7.78;3.65;;;;;;;18.25;68.80;101732.34;5038931;28;20058;-66